sensor_id;sensor_type;location;lat;lon;timestamp;P1;durP1;ratioP1;P2;durP2;ratioP2
65238;SDS011;51827;51.186;6.926;2022-07-25T00:00:12;4.90;;;2.90;;
65238;SDS011;51827;51.186;6.926;2022-07-25T00:01:14;5.40;;;3.13;;
65238;SDS011;51827;51.186;6.926;2022-07-25T00:02:14;5.68;;;3.13;;
65238;SDS011;51827;51.186;6.926;2022-07-25T00:03:14;4.53;;;2.90;;
65238;SDS011;51827;51.186;6.926;2022-07-25T00:04:15;3.93;;;2.80;;
65238;SDS011;51827;51.186;6.926;2022-07-25T00:05:15;4.67;;;2.70;;
65238;SDS011;51827;51.186;6.926;2022-07-25T00:06:15;3.83;;;3.00;;
65238;SDS011;51827;51.186;6.926;2022-07-25T00:07:16;4.87;;;3.10;;
65238;SDS011;51827;51.186;6.926;2022-07-25T00:08:16;4.37;;;3.00;;
65238;SDS011;51827;51.186;6.926;2022-07-25T00:09:16;4.20;;;2.83;;
65238;SDS011;51827;51.186;6.926;2022-07-25T00:10:17;4.68;;;2.90;;
65238;SDS011;51827;51.186;6.926;2022-07-25T00:11:17;4.25;;;2.70;;
65238;SDS011;51827;51.186;6.926;2022-07-25T00:12:17;5.50;;;2.90;;
65238;SDS011;51827;51.186;6.926;2022-07-25T00:13:18;3.58;;;2.80;;
65238;SDS011;51827;51.186;6.926;2022-07-25T00:14:19;5.03;;;3.00;;
65238;SDS011;51827;51.186;6.926;2022-07-25T00:15:19;4.27;;;2.70;;
65238;SDS011;51827;51.186;6.926;2022-07-25T00:16:19;4.47;;;2.97;;
65238;SDS011;51827;51.186;6.926;2022-07-25T00:17:20;4.22;;;2.72;;
65238;SDS011;51827;51.186;6.926;2022-07-25T00:18:20;5.27;;;3.10;;
65238;SDS011;51827;51.186;6.926;2022-07-25T00:19:20;4.70;;;3.00;;
65238;SDS011;51827;51.186;6.926;2022-07-25T00:20:21;4.03;;;2.77;;
65238;SDS011;51827;51.186;6.926;2022-07-25T00:21:21;6.67;;;2.90;;
65238;SDS011;51827;51.186;6.926;2022-07-25T00:22:21;4.18;;;2.78;;
65238;SDS011;51827;51.186;6.926;2022-07-25T00:23:22;6.00;;;2.90;;
65238;SDS011;51827;51.186;6.926;2022-07-25T00:24:22;4.57;;;3.00;;
65238;SDS011;51827;51.186;6.926;2022-07-25T00:25:22;3.97;;;2.70;;
65238;SDS011;51827;51.186;6.926;2022-07-25T00:26:23;4.28;;;2.70;;
65238;SDS011;51827;51.186;6.926;2022-07-25T00:27:23;4.43;;;2.97;;
65238;SDS011;51827;51.186;6.926;2022-07-25T00:28:24;5.80;;;2.83;;
65238;SDS011;51827;51.186;6.926;2022-07-25T00:29:24;3.67;;;2.70;;
65238;SDS011;51827;51.186;6.926;2022-07-25T00:30:24;3.53;;;2.80;;
65238;SDS011;51827;51.186;6.926;2022-07-25T00:31:24;4.40;;;3.00;;
65238;SDS011;51827;51.186;6.926;2022-07-25T00:32:25;4.93;;;2.73;;
65238;SDS011;51827;51.186;6.926;2022-07-25T00:33:25;4.70;;;2.87;;
65238;SDS011;51827;51.186;6.926;2022-07-25T00:34:25;3.77;;;2.77;;
65238;SDS011;51827;51.186;6.926;2022-07-25T00:35:26;4.13;;;3.03;;
65238;SDS011;51827;51.186;6.926;2022-07-25T00:36:26;5.27;;;2.77;;
65238;SDS011;51827;51.186;6.926;2022-07-25T00:37:26;4.67;;;3.03;;
65238;SDS011;51827;51.186;6.926;2022-07-25T00:38:27;3.43;;;2.60;;
65238;SDS011;51827;51.186;6.926;2022-07-25T00:39:27;4.23;;;3.03;;
65238;SDS011;51827;51.186;6.926;2022-07-25T00:40:27;4.13;;;2.80;;
65238;SDS011;51827;51.186;6.926;2022-07-25T00:41:27;3.43;;;2.57;;
65238;SDS011;51827;51.186;6.926;2022-07-25T00:42:28;3.90;;;2.80;;
65238;SDS011;51827;51.186;6.926;2022-07-25T00:43:29;3.65;;;2.67;;
65238;SDS011;51827;51.186;6.926;2022-07-25T00:44:30;4.03;;;2.88;;
65238;SDS011;51827;51.186;6.926;2022-07-25T00:45:31;3.80;;;2.72;;
65238;SDS011;51827;51.186;6.926;2022-07-25T00:46:32;4.47;;;2.73;;
65238;SDS011;51827;51.186;6.926;2022-07-25T00:47:32;5.23;;;3.23;;
65238;SDS011;51827;51.186;6.926;2022-07-25T00:48:32;4.60;;;2.70;;
65238;SDS011;51827;51.186;6.926;2022-07-25T00:49:32;3.80;;;2.70;;
65238;SDS011;51827;51.186;6.926;2022-07-25T00:50:33;4.18;;;2.85;;
65238;SDS011;51827;51.186;6.926;2022-07-25T00:51:34;3.85;;;2.80;;
65238;SDS011;51827;51.186;6.926;2022-07-25T00:52:34;3.60;;;2.60;;
65238;SDS011;51827;51.186;6.926;2022-07-25T00:53:35;3.47;;;2.83;;
65238;SDS011;51827;51.186;6.926;2022-07-25T00:54:36;3.63;;;2.70;;
65238;SDS011;51827;51.186;6.926;2022-07-25T00:55:37;3.63;;;2.85;;
65238;SDS011;51827;51.186;6.926;2022-07-25T00:56:38;4.63;;;2.93;;
65238;SDS011;51827;51.186;6.926;2022-07-25T00:57:38;5.00;;;3.00;;
65238;SDS011;51827;51.186;6.926;2022-07-25T00:58:39;5.05;;;3.00;;
65238;SDS011;51827;51.186;6.926;2022-07-25T00:59:39;4.50;;;2.90;;
65238;SDS011;51827;51.186;6.926;2022-07-25T01:00:39;4.50;;;3.10;;
65238;SDS011;51827;51.186;6.926;2022-07-25T01:01:40;4.28;;;2.90;;
65238;SDS011;51827;51.186;6.926;2022-07-25T01:02:40;3.57;;;2.67;;
65238;SDS011;51827;51.186;6.926;2022-07-25T01:03:41;4.25;;;2.90;;
65238;SDS011;51827;51.186;6.926;2022-07-25T01:04:41;4.47;;;3.00;;
65238;SDS011;51827;51.186;6.926;2022-07-25T01:05:42;3.67;;;2.80;;
65238;SDS011;51827;51.186;6.926;2022-07-25T01:06:43;4.18;;;2.70;;
65238;SDS011;51827;51.186;6.926;2022-07-25T01:07:43;3.70;;;2.60;;
65238;SDS011;51827;51.186;6.926;2022-07-25T01:08:45;5.28;;;3.00;;
65238;SDS011;51827;51.186;6.926;2022-07-25T01:09:46;4.38;;;3.13;;
65238;SDS011;51827;51.186;6.926;2022-07-25T01:10:46;4.25;;;2.85;;
65238;SDS011;51827;51.186;6.926;2022-07-25T01:11:47;3.28;;;2.78;;
65238;SDS011;51827;51.186;6.926;2022-07-25T01:12:48;5.53;;;3.03;;
65238;SDS011;51827;51.186;6.926;2022-07-25T01:13:50;3.70;;;2.90;;
65238;SDS011;51827;51.186;6.926;2022-07-25T01:14:51;4.30;;;2.85;;
65238;SDS011;51827;51.186;6.926;2022-07-25T01:15:51;4.30;;;2.90;;
65238;SDS011;51827;51.186;6.926;2022-07-25T01:16:51;4.30;;;2.90;;
65238;SDS011;51827;51.186;6.926;2022-07-25T01:17:52;3.80;;;2.97;;
65238;SDS011;51827;51.186;6.926;2022-07-25T01:18:52;4.47;;;3.00;;
65238;SDS011;51827;51.186;6.926;2022-07-25T01:19:53;4.83;;;3.10;;
65238;SDS011;51827;51.186;6.926;2022-07-25T01:20:53;4.50;;;2.90;;
65238;SDS011;51827;51.186;6.926;2022-07-25T01:21:53;3.63;;;2.80;;
65238;SDS011;51827;51.186;6.926;2022-07-25T01:22:54;4.03;;;2.73;;
65238;SDS011;51827;51.186;6.926;2022-07-25T01:23:55;4.85;;;2.78;;
65238;SDS011;51827;51.186;6.926;2022-07-25T01:24:55;3.93;;;2.93;;
65238;SDS011;51827;51.186;6.926;2022-07-25T01:25:55;3.90;;;2.80;;
65238;SDS011;51827;51.186;6.926;2022-07-25T01:26:56;4.37;;;2.77;;
65238;SDS011;51827;51.186;6.926;2022-07-25T01:27:56;4.43;;;3.13;;
65238;SDS011;51827;51.186;6.926;2022-07-25T01:28:56;3.88;;;2.63;;
65238;SDS011;51827;51.186;6.926;2022-07-25T01:29:56;3.90;;;3.10;;
65238;SDS011;51827;51.186;6.926;2022-07-25T01:30:57;3.50;;;2.83;;
65238;SDS011;51827;51.186;6.926;2022-07-25T01:31:57;4.10;;;2.90;;
65238;SDS011;51827;51.186;6.926;2022-07-25T01:32:57;4.00;;;2.77;;
65238;SDS011;51827;51.186;6.926;2022-07-25T01:33:57;3.90;;;2.60;;
65238;SDS011;51827;51.186;6.926;2022-07-25T01:34:58;3.83;;;2.87;;
65238;SDS011;51827;51.186;6.926;2022-07-25T01:35:58;3.93;;;3.03;;
65238;SDS011;51827;51.186;6.926;2022-07-25T01:36:58;3.88;;;2.75;;
65238;SDS011;51827;51.186;6.926;2022-07-25T01:37:59;4.67;;;2.80;;
65238;SDS011;51827;51.186;6.926;2022-07-25T01:38:59;3.93;;;2.90;;
65238;SDS011;51827;51.186;6.926;2022-07-25T01:40:02;3.97;;;3.03;;
65238;SDS011;51827;51.186;6.926;2022-07-25T01:41:03;3.40;;;2.58;;
65238;SDS011;51827;51.186;6.926;2022-07-25T01:42:03;3.53;;;2.60;;
65238;SDS011;51827;51.186;6.926;2022-07-25T01:43:04;3.65;;;2.65;;
65238;SDS011;51827;51.186;6.926;2022-07-25T01:44:05;4.03;;;3.08;;
65238;SDS011;51827;51.186;6.926;2022-07-25T01:45:05;4.17;;;3.00;;
65238;SDS011;51827;51.186;6.926;2022-07-25T01:46:06;3.97;;;2.80;;
65238;SDS011;51827;51.186;6.926;2022-07-25T01:47:06;3.40;;;2.67;;
65238;SDS011;51827;51.186;6.926;2022-07-25T01:48:07;4.30;;;3.00;;
65238;SDS011;51827;51.186;6.926;2022-07-25T01:49:07;3.97;;;2.65;;
65238;SDS011;51827;51.186;6.926;2022-07-25T01:50:08;4.23;;;3.00;;
65238;SDS011;51827;51.186;6.926;2022-07-25T01:51:08;3.83;;;2.67;;
65238;SDS011;51827;51.186;6.926;2022-07-25T01:52:09;3.63;;;2.90;;
65238;SDS011;51827;51.186;6.926;2022-07-25T01:53:09;4.20;;;2.80;;
65238;SDS011;51827;51.186;6.926;2022-07-25T01:54:09;5.20;;;3.00;;
65238;SDS011;51827;51.186;6.926;2022-07-25T01:55:10;5.33;;;2.60;;
65238;SDS011;51827;51.186;6.926;2022-07-25T01:56:10;3.87;;;2.87;;
65238;SDS011;51827;51.186;6.926;2022-07-25T01:57:10;3.70;;;2.87;;
65238;SDS011;51827;51.186;6.926;2022-07-25T01:58:11;3.70;;;2.90;;
65238;SDS011;51827;51.186;6.926;2022-07-25T01:59:11;3.93;;;2.80;;
65238;SDS011;51827;51.186;6.926;2022-07-25T02:00:12;3.13;;;2.60;;
65238;SDS011;51827;51.186;6.926;2022-07-25T02:01:13;3.72;;;2.72;;
65238;SDS011;51827;51.186;6.926;2022-07-25T02:02:13;3.87;;;2.80;;
65238;SDS011;51827;51.186;6.926;2022-07-25T02:03:14;4.60;;;2.80;;
65238;SDS011;51827;51.186;6.926;2022-07-25T02:04:14;4.10;;;3.03;;
65238;SDS011;51827;51.186;6.926;2022-07-25T02:05:14;4.00;;;3.00;;
65238;SDS011;51827;51.186;6.926;2022-07-25T02:06:16;4.00;;;2.97;;
65238;SDS011;51827;51.186;6.926;2022-07-25T02:07:17;3.90;;;2.85;;
65238;SDS011;51827;51.186;6.926;2022-07-25T02:08:17;5.05;;;2.78;;
65238;SDS011;51827;51.186;6.926;2022-07-25T02:09:17;3.77;;;2.73;;
65238;SDS011;51827;51.186;6.926;2022-07-25T02:10:18;3.57;;;2.83;;
65238;SDS011;51827;51.186;6.926;2022-07-25T02:11:18;3.70;;;2.90;;
65238;SDS011;51827;51.186;6.926;2022-07-25T02:12:18;3.55;;;2.70;;
65238;SDS011;51827;51.186;6.926;2022-07-25T02:13:22;3.75;;;2.70;;
65238;SDS011;51827;51.186;6.926;2022-07-25T02:14:22;3.97;;;2.92;;
65238;SDS011;51827;51.186;6.926;2022-07-25T02:15:22;3.97;;;2.87;;
65238;SDS011;51827;51.186;6.926;2022-07-25T02:16:23;4.77;;;2.97;;
65238;SDS011;51827;51.186;6.926;2022-07-25T02:17:23;3.73;;;2.83;;
65238;SDS011;51827;51.186;6.926;2022-07-25T02:18:23;3.90;;;2.70;;
65238;SDS011;51827;51.186;6.926;2022-07-25T02:19:24;4.57;;;2.63;;
65238;SDS011;51827;51.186;6.926;2022-07-25T02:20:24;4.17;;;2.73;;
65238;SDS011;51827;51.186;6.926;2022-07-25T02:21:24;4.03;;;2.63;;
65238;SDS011;51827;51.186;6.926;2022-07-25T02:22:24;3.43;;;2.70;;
65238;SDS011;51827;51.186;6.926;2022-07-25T02:23:25;4.10;;;2.80;;
65238;SDS011;51827;51.186;6.926;2022-07-25T02:24:25;4.10;;;2.90;;
65238;SDS011;51827;51.186;6.926;2022-07-25T02:25:25;3.53;;;2.73;;
65238;SDS011;51827;51.186;6.926;2022-07-25T02:26:26;4.13;;;2.80;;
65238;SDS011;51827;51.186;6.926;2022-07-25T02:27:26;3.53;;;2.60;;
65238;SDS011;51827;51.186;6.926;2022-07-25T02:28:26;3.87;;;2.70;;
65238;SDS011;51827;51.186;6.926;2022-07-25T02:29:26;3.60;;;2.53;;
65238;SDS011;51827;51.186;6.926;2022-07-25T02:30:27;4.33;;;3.00;;
65238;SDS011;51827;51.186;6.926;2022-07-25T02:31:27;4.30;;;2.95;;
65238;SDS011;51827;51.186;6.926;2022-07-25T02:32:27;3.13;;;2.50;;
65238;SDS011;51827;51.186;6.926;2022-07-25T02:33:28;4.17;;;2.77;;
65238;SDS011;51827;51.186;6.926;2022-07-25T02:34:28;3.33;;;2.70;;
65238;SDS011;51827;51.186;6.926;2022-07-25T02:35:28;3.80;;;2.70;;
65238;SDS011;51827;51.186;6.926;2022-07-25T02:36:28;4.00;;;2.90;;
65238;SDS011;51827;51.186;6.926;2022-07-25T02:37:29;3.85;;;2.65;;
65238;SDS011;51827;51.186;6.926;2022-07-25T02:38:29;3.90;;;2.73;;
65238;SDS011;51827;51.186;6.926;2022-07-25T02:39:29;4.23;;;2.73;;
65238;SDS011;51827;51.186;6.926;2022-07-25T02:40:30;3.77;;;2.70;;
65238;SDS011;51827;51.186;6.926;2022-07-25T02:41:30;3.70;;;2.90;;
65238;SDS011;51827;51.186;6.926;2022-07-25T02:42:30;3.53;;;2.67;;
65238;SDS011;51827;51.186;6.926;2022-07-25T02:43:30;3.50;;;2.67;;
65238;SDS011;51827;51.186;6.926;2022-07-25T02:44:31;3.47;;;2.70;;
65238;SDS011;51827;51.186;6.926;2022-07-25T02:45:31;5.00;;;2.83;;
65238;SDS011;51827;51.186;6.926;2022-07-25T02:46:31;3.53;;;2.80;;
65238;SDS011;51827;51.186;6.926;2022-07-25T02:47:32;4.00;;;2.95;;
65238;SDS011;51827;51.186;6.926;2022-07-25T02:48:32;4.30;;;2.60;;
65238;SDS011;51827;51.186;6.926;2022-07-25T02:49:33;4.18;;;2.70;;
65238;SDS011;51827;51.186;6.926;2022-07-25T02:50:33;5.07;;;2.83;;
65238;SDS011;51827;51.186;6.926;2022-07-25T02:51:34;4.50;;;2.47;;
65238;SDS011;51827;51.186;6.926;2022-07-25T02:52:34;3.60;;;2.70;;
65238;SDS011;51827;51.186;6.926;2022-07-25T02:53:34;4.33;;;2.80;;
65238;SDS011;51827;51.186;6.926;2022-07-25T02:54:35;3.40;;;2.92;;
65238;SDS011;51827;51.186;6.926;2022-07-25T02:55:35;3.93;;;2.70;;
65238;SDS011;51827;51.186;6.926;2022-07-25T02:56:35;3.67;;;2.53;;
65238;SDS011;51827;51.186;6.926;2022-07-25T02:57:36;3.97;;;2.90;;
65238;SDS011;51827;51.186;6.926;2022-07-25T02:58:36;3.93;;;2.87;;
65238;SDS011;51827;51.186;6.926;2022-07-25T02:59:36;4.07;;;2.90;;
65238;SDS011;51827;51.186;6.926;2022-07-25T03:00:36;4.60;;;3.00;;
65238;SDS011;51827;51.186;6.926;2022-07-25T03:01:37;3.77;;;2.60;;
65238;SDS011;51827;51.186;6.926;2022-07-25T03:02:37;3.37;;;2.63;;
65238;SDS011;51827;51.186;6.926;2022-07-25T03:03:37;3.60;;;2.30;;
65238;SDS011;51827;51.186;6.926;2022-07-25T03:04:38;3.07;;;2.60;;
65238;SDS011;51827;51.186;6.926;2022-07-25T03:05:38;4.70;;;2.60;;
65238;SDS011;51827;51.186;6.926;2022-07-25T03:06:38;3.33;;;2.60;;
65238;SDS011;51827;51.186;6.926;2022-07-25T03:07:40;3.83;;;2.90;;
65238;SDS011;51827;51.186;6.926;2022-07-25T03:08:41;5.40;;;2.90;;
65238;SDS011;51827;51.186;6.926;2022-07-25T03:09:41;3.60;;;2.80;;
65238;SDS011;51827;51.186;6.926;2022-07-25T03:10:41;3.80;;;2.75;;
65238;SDS011;51827;51.186;6.926;2022-07-25T03:11:42;3.40;;;2.50;;
65238;SDS011;51827;51.186;6.926;2022-07-25T03:12:42;3.70;;;2.47;;
65238;SDS011;51827;51.186;6.926;2022-07-25T03:13:43;3.70;;;2.65;;
65238;SDS011;51827;51.186;6.926;2022-07-25T03:14:43;5.23;;;3.10;;
65238;SDS011;51827;51.186;6.926;2022-07-25T03:15:44;3.87;;;2.80;;
65238;SDS011;51827;51.186;6.926;2022-07-25T03:16:44;3.63;;;2.80;;
65238;SDS011;51827;51.186;6.926;2022-07-25T03:17:44;3.30;;;2.73;;
65238;SDS011;51827;51.186;6.926;2022-07-25T03:18:44;3.90;;;2.90;;
65238;SDS011;51827;51.186;6.926;2022-07-25T03:19:45;3.07;;;2.57;;
65238;SDS011;51827;51.186;6.926;2022-07-25T03:20:45;4.20;;;2.73;;
65238;SDS011;51827;51.186;6.926;2022-07-25T03:21:45;3.03;;;2.50;;
65238;SDS011;51827;51.186;6.926;2022-07-25T03:22:45;9.33;;;2.87;;
65238;SDS011;51827;51.186;6.926;2022-07-25T03:23:46;6.70;;;2.70;;
65238;SDS011;51827;51.186;6.926;2022-07-25T03:24:46;4.83;;;3.07;;
65238;SDS011;51827;51.186;6.926;2022-07-25T03:25:46;9.35;;;4.13;;
65238;SDS011;51827;51.186;6.926;2022-07-25T03:26:47;8.33;;;4.10;;
65238;SDS011;51827;51.186;6.926;2022-07-25T03:27:47;6.33;;;4.60;;
65238;SDS011;51827;51.186;6.926;2022-07-25T03:28:48;7.25;;;4.53;;
65238;SDS011;51827;51.186;6.926;2022-07-25T03:29:48;6.40;;;4.10;;
65238;SDS011;51827;51.186;6.926;2022-07-25T03:30:48;9.77;;;4.33;;
65238;SDS011;51827;51.186;6.926;2022-07-25T03:31:49;6.47;;;4.35;;
65238;SDS011;51827;51.186;6.926;2022-07-25T03:32:49;7.30;;;4.40;;
65238;SDS011;51827;51.186;6.926;2022-07-25T03:33:49;8.27;;;4.50;;
65238;SDS011;51827;51.186;6.926;2022-07-25T03:34:50;10.13;;;4.67;;
65238;SDS011;51827;51.186;6.926;2022-07-25T03:35:50;8.07;;;4.83;;
65238;SDS011;51827;51.186;6.926;2022-07-25T03:36:50;9.70;;;5.10;;
65238;SDS011;51827;51.186;6.926;2022-07-25T03:37:51;6.23;;;4.53;;
65238;SDS011;51827;51.186;6.926;2022-07-25T03:38:51;6.75;;;4.60;;
65238;SDS011;51827;51.186;6.926;2022-07-25T03:39:52;7.73;;;5.43;;
65238;SDS011;51827;51.186;6.926;2022-07-25T03:40:52;10.80;;;4.73;;
65238;SDS011;51827;51.186;6.926;2022-07-25T03:41:52;6.40;;;4.57;;
65238;SDS011;51827;51.186;6.926;2022-07-25T03:42:53;11.38;;;4.68;;
65238;SDS011;51827;51.186;6.926;2022-07-25T03:43:53;9.10;;;4.57;;
65238;SDS011;51827;51.186;6.926;2022-07-25T03:44:54;12.03;;;4.53;;
65238;SDS011;51827;51.186;6.926;2022-07-25T03:45:54;7.60;;;5.10;;
65238;SDS011;51827;51.186;6.926;2022-07-25T03:46:54;6.27;;;4.53;;
65238;SDS011;51827;51.186;6.926;2022-07-25T03:47:54;9.27;;;4.80;;
65238;SDS011;51827;51.186;6.926;2022-07-25T03:48:55;8.30;;;4.13;;
65238;SDS011;51827;51.186;6.926;2022-07-25T03:49:55;5.97;;;3.53;;
65238;SDS011;51827;51.186;6.926;2022-07-25T03:50:56;7.10;;;3.77;;
65238;SDS011;51827;51.186;6.926;2022-07-25T03:51:56;5.88;;;3.88;;
65238;SDS011;51827;51.186;6.926;2022-07-25T03:52:56;11.53;;;4.93;;
65238;SDS011;51827;51.186;6.926;2022-07-25T03:53:57;7.20;;;4.43;;
65238;SDS011;51827;51.186;6.926;2022-07-25T03:54:57;7.87;;;4.23;;
65238;SDS011;51827;51.186;6.926;2022-07-25T03:55:57;13.00;;;4.53;;
65238;SDS011;51827;51.186;6.926;2022-07-25T03:56:57;8.97;;;4.83;;
65238;SDS011;51827;51.186;6.926;2022-07-25T03:57:58;7.10;;;4.57;;
65238;SDS011;51827;51.186;6.926;2022-07-25T03:58:58;8.10;;;4.70;;
65238;SDS011;51827;51.186;6.926;2022-07-25T03:59:58;8.70;;;4.70;;
65238;SDS011;51827;51.186;6.926;2022-07-25T04:00:58;6.97;;;4.43;;
65238;SDS011;51827;51.186;6.926;2022-07-25T04:01:58;10.20;;;5.00;;
65238;SDS011;51827;51.186;6.926;2022-07-25T04:02:59;7.60;;;5.03;;
65238;SDS011;51827;51.186;6.926;2022-07-25T04:04:00;7.17;;;4.73;;
65238;SDS011;51827;51.186;6.926;2022-07-25T04:06:00;6.33;;;4.60;;
65238;SDS011;51827;51.186;6.926;2022-07-25T04:07:01;8.13;;;5.13;;
65238;SDS011;51827;51.186;6.926;2022-07-25T04:08:01;8.73;;;5.20;;
65238;SDS011;51827;51.186;6.926;2022-07-25T04:09:02;8.80;;;4.93;;
65238;SDS011;51827;51.186;6.926;2022-07-25T04:10:03;9.43;;;5.10;;
65238;SDS011;51827;51.186;6.926;2022-07-25T04:11:05;9.80;;;5.10;;
65238;SDS011;51827;51.186;6.926;2022-07-25T04:12:05;8.67;;;5.00;;
65238;SDS011;51827;51.186;6.926;2022-07-25T04:13:05;9.63;;;5.50;;
65238;SDS011;51827;51.186;6.926;2022-07-25T04:14:06;8.37;;;5.00;;
65238;SDS011;51827;51.186;6.926;2022-07-25T04:15:06;7.30;;;4.80;;
65238;SDS011;51827;51.186;6.926;2022-07-25T04:16:07;8.60;;;5.28;;
65238;SDS011;51827;51.186;6.926;2022-07-25T04:17:08;9.30;;;5.20;;
65238;SDS011;51827;51.186;6.926;2022-07-25T04:18:08;7.90;;;4.80;;
65238;SDS011;51827;51.186;6.926;2022-07-25T04:19:09;7.13;;;5.13;;
65238;SDS011;51827;51.186;6.926;2022-07-25T04:20:09;8.03;;;5.20;;
65238;SDS011;51827;51.186;6.926;2022-07-25T04:21:10;9.10;;;5.28;;
65238;SDS011;51827;51.186;6.926;2022-07-25T04:22:10;9.10;;;5.20;;
65238;SDS011;51827;51.186;6.926;2022-07-25T04:23:10;10.87;;;5.13;;
65238;SDS011;51827;51.186;6.926;2022-07-25T04:24:10;15.37;;;5.40;;
65238;SDS011;51827;51.186;6.926;2022-07-25T04:25:11;9.23;;;5.03;;
65238;SDS011;51827;51.186;6.926;2022-07-25T04:26:11;19.07;;;5.50;;
65238;SDS011;51827;51.186;6.926;2022-07-25T04:27:11;9.00;;;4.77;;
65238;SDS011;51827;51.186;6.926;2022-07-25T04:28:11;8.93;;;5.40;;
65238;SDS011;51827;51.186;6.926;2022-07-25T04:29:12;7.20;;;4.43;;
65238;SDS011;51827;51.186;6.926;2022-07-25T04:30:12;8.87;;;5.30;;
65238;SDS011;51827;51.186;6.926;2022-07-25T04:31:12;9.57;;;5.10;;
65238;SDS011;51827;51.186;6.926;2022-07-25T04:32:13;7.63;;;4.97;;
65238;SDS011;51827;51.186;6.926;2022-07-25T04:33:13;8.23;;;4.97;;
65238;SDS011;51827;51.186;6.926;2022-07-25T04:34:13;7.97;;;4.77;;
65238;SDS011;51827;51.186;6.926;2022-07-25T04:35:13;6.30;;;4.80;;
65238;SDS011;51827;51.186;6.926;2022-07-25T04:36:14;8.57;;;4.67;;
65238;SDS011;51827;51.186;6.926;2022-07-25T04:37:14;7.10;;;5.10;;
65238;SDS011;51827;51.186;6.926;2022-07-25T04:38:14;10.40;;;5.27;;
65238;SDS011;51827;51.186;6.926;2022-07-25T04:39:15;8.87;;;4.80;;
65238;SDS011;51827;51.186;6.926;2022-07-25T04:40:15;11.73;;;5.60;;
65238;SDS011;51827;51.186;6.926;2022-07-25T04:41:15;7.73;;;5.27;;
65238;SDS011;51827;51.186;6.926;2022-07-25T04:42:15;5.80;;;4.53;;
65238;SDS011;51827;51.186;6.926;2022-07-25T04:43:16;11.63;;;5.07;;
65238;SDS011;51827;51.186;6.926;2022-07-25T04:44:16;16.70;;;5.07;;
65238;SDS011;51827;51.186;6.926;2022-07-25T04:45:16;15.43;;;5.40;;
65238;SDS011;51827;51.186;6.926;2022-07-25T04:46:20;10.63;;;5.20;;
65238;SDS011;51827;51.186;6.926;2022-07-25T04:47:21;11.77;;;5.00;;
65238;SDS011;51827;51.186;6.926;2022-07-25T04:48:21;7.33;;;5.13;;
65238;SDS011;51827;51.186;6.926;2022-07-25T04:49:21;9.50;;;4.90;;
65238;SDS011;51827;51.186;6.926;2022-07-25T04:50:21;8.67;;;4.70;;
65238;SDS011;51827;51.186;6.926;2022-07-25T04:51:22;9.43;;;4.90;;
65238;SDS011;51827;51.186;6.926;2022-07-25T04:52:22;9.00;;;4.90;;
65238;SDS011;51827;51.186;6.926;2022-07-25T04:53:23;7.57;;;5.37;;
65238;SDS011;51827;51.186;6.926;2022-07-25T04:54:23;10.00;;;5.50;;
65238;SDS011;51827;51.186;6.926;2022-07-25T04:55:23;9.17;;;4.90;;
65238;SDS011;51827;51.186;6.926;2022-07-25T04:56:24;8.38;;;4.95;;
65238;SDS011;51827;51.186;6.926;2022-07-25T04:57:24;10.70;;;5.40;;
65238;SDS011;51827;51.186;6.926;2022-07-25T04:58:24;9.02;;;5.15;;
65238;SDS011;51827;51.186;6.926;2022-07-25T04:59:25;13.23;;;5.10;;
65238;SDS011;51827;51.186;6.926;2022-07-25T05:00:25;11.17;;;5.30;;
65238;SDS011;51827;51.186;6.926;2022-07-25T05:01:25;7.35;;;5.25;;
65238;SDS011;51827;51.186;6.926;2022-07-25T05:02:26;11.27;;;5.07;;
65238;SDS011;51827;51.186;6.926;2022-07-25T05:03:26;7.80;;;5.10;;
65238;SDS011;51827;51.186;6.926;2022-07-25T05:04:26;9.07;;;5.18;;
65238;SDS011;51827;51.186;6.926;2022-07-25T05:05:27;9.97;;;4.90;;
65238;SDS011;51827;51.186;6.926;2022-07-25T05:06:27;7.90;;;4.93;;
65238;SDS011;51827;51.186;6.926;2022-07-25T05:07:27;6.45;;;4.45;;
65238;SDS011;51827;51.186;6.926;2022-07-25T05:08:28;9.57;;;5.13;;
65238;SDS011;51827;51.186;6.926;2022-07-25T05:09:28;7.90;;;5.32;;
65238;SDS011;51827;51.186;6.926;2022-07-25T05:10:29;11.77;;;4.83;;
65238;SDS011;51827;51.186;6.926;2022-07-25T05:11:29;7.57;;;5.20;;
65238;SDS011;51827;51.186;6.926;2022-07-25T05:12:29;7.80;;;5.07;;
65238;SDS011;51827;51.186;6.926;2022-07-25T05:13:30;10.00;;;5.30;;
65238;SDS011;51827;51.186;6.926;2022-07-25T05:14:30;10.00;;;5.20;;
65238;SDS011;51827;51.186;6.926;2022-07-25T05:15:30;7.47;;;4.77;;
65238;SDS011;51827;51.186;6.926;2022-07-25T05:16:31;8.57;;;4.80;;
65238;SDS011;51827;51.186;6.926;2022-07-25T05:17:31;10.00;;;5.63;;
65238;SDS011;51827;51.186;6.926;2022-07-25T05:18:32;10.47;;;5.07;;
65238;SDS011;51827;51.186;6.926;2022-07-25T05:19:33;8.13;;;5.10;;
65238;SDS011;51827;51.186;6.926;2022-07-25T05:20:33;9.00;;;5.57;;
65238;SDS011;51827;51.186;6.926;2022-07-25T05:21:34;10.33;;;5.43;;
65238;SDS011;51827;51.186;6.926;2022-07-25T05:22:34;7.63;;;4.90;;
65238;SDS011;51827;51.186;6.926;2022-07-25T05:23:34;7.77;;;5.30;;
65238;SDS011;51827;51.186;6.926;2022-07-25T05:24:35;8.03;;;4.87;;
65238;SDS011;51827;51.186;6.926;2022-07-25T05:25:36;8.70;;;4.80;;
65238;SDS011;51827;51.186;6.926;2022-07-25T05:26:36;6.47;;;4.53;;
65238;SDS011;51827;51.186;6.926;2022-07-25T05:27:37;9.03;;;5.20;;
65238;SDS011;51827;51.186;6.926;2022-07-25T05:28:37;10.85;;;5.25;;
65238;SDS011;51827;51.186;6.926;2022-07-25T05:29:38;8.33;;;4.93;;
65238;SDS011;51827;51.186;6.926;2022-07-25T05:30:38;8.17;;;5.20;;
65238;SDS011;51827;51.186;6.926;2022-07-25T05:31:38;9.60;;;5.10;;
65238;SDS011;51827;51.186;6.926;2022-07-25T05:32:39;8.37;;;4.90;;
65238;SDS011;51827;51.186;6.926;2022-07-25T05:33:39;8.48;;;4.80;;
65238;SDS011;51827;51.186;6.926;2022-07-25T05:34:40;6.70;;;4.70;;
65238;SDS011;51827;51.186;6.926;2022-07-25T05:35:40;7.03;;;4.70;;
65238;SDS011;51827;51.186;6.926;2022-07-25T05:36:40;14.95;;;4.88;;
65238;SDS011;51827;51.186;6.926;2022-07-25T05:37:41;11.53;;;5.03;;
65238;SDS011;51827;51.186;6.926;2022-07-25T05:38:41;7.33;;;4.83;;
65238;SDS011;51827;51.186;6.926;2022-07-25T05:39:41;8.13;;;4.97;;
65238;SDS011;51827;51.186;6.926;2022-07-25T05:40:41;8.27;;;4.73;;
65238;SDS011;51827;51.186;6.926;2022-07-25T05:41:42;9.17;;;5.30;;
65238;SDS011;51827;51.186;6.926;2022-07-25T05:42:42;9.37;;;5.00;;
65238;SDS011;51827;51.186;6.926;2022-07-25T05:43:42;8.47;;;4.93;;
65238;SDS011;51827;51.186;6.926;2022-07-25T05:44:42;7.90;;;4.90;;
65238;SDS011;51827;51.186;6.926;2022-07-25T05:45:43;6.57;;;4.77;;
65238;SDS011;51827;51.186;6.926;2022-07-25T05:46:43;8.83;;;5.30;;
65238;SDS011;51827;51.186;6.926;2022-07-25T05:47:43;7.10;;;4.77;;
65238;SDS011;51827;51.186;6.926;2022-07-25T05:48:44;8.17;;;5.07;;
65238;SDS011;51827;51.186;6.926;2022-07-25T05:49:44;8.15;;;5.00;;
65238;SDS011;51827;51.186;6.926;2022-07-25T05:50:44;6.83;;;5.00;;
65238;SDS011;51827;51.186;6.926;2022-07-25T05:51:44;7.57;;;5.13;;
65238;SDS011;51827;51.186;6.926;2022-07-25T05:52:45;7.80;;;5.10;;
65238;SDS011;51827;51.186;6.926;2022-07-25T05:53:45;9.37;;;5.27;;
65238;SDS011;51827;51.186;6.926;2022-07-25T05:54:45;8.57;;;4.97;;
65238;SDS011;51827;51.186;6.926;2022-07-25T05:55:46;7.27;;;4.70;;
65238;SDS011;51827;51.186;6.926;2022-07-25T05:56:46;5.63;;;4.43;;
65238;SDS011;51827;51.186;6.926;2022-07-25T05:57:46;8.40;;;4.90;;
65238;SDS011;51827;51.186;6.926;2022-07-25T05:58:46;7.17;;;4.70;;
65238;SDS011;51827;51.186;6.926;2022-07-25T05:59:47;9.20;;;4.93;;
65238;SDS011;51827;51.186;6.926;2022-07-25T06:00:47;6.67;;;4.57;;
65238;SDS011;51827;51.186;6.926;2022-07-25T06:01:47;7.43;;;4.70;;
65238;SDS011;51827;51.186;6.926;2022-07-25T06:02:47;8.23;;;4.70;;
65238;SDS011;51827;51.186;6.926;2022-07-25T06:03:48;8.33;;;4.67;;